^^
Station Historical Data
 
Daily Summary for June 22, 2018 Units:  English    Metric   Both
« Previous Day
Next Day »
Daily Weekly Monthly Yearly Custom
  Current: High: Low: Average:
Temperature: 84.9 °F TemperatureF °F 64.9 °F 71.6 °F
Dew Point: 63.0 °F DewpointF °F 61.2 °F 65.2 °F
Humidity: 48% Humidity% 46% 83%
Wind Speed: 2.0mph WindSpeedMPHmph 0.0mph 0.7mph
Wind Gust: 4.0mph WindSpeedGustMPHmph - -
WindWNW - - South
Pressure: 30.14 in PressureIn in 30.14 in -
Precipitation: 0.00 in      
Historical Graphs
 
 
Tabular Data for June 22, 2018
Time Temperature Dew Point Pressure Wind Wind Speed Wind Gust Humidity Rainfall Rate (Hourly)
TemperatureF °F DewpointF °F PressureIn in Calm     Humidity% HourlyPrecipIn in
00:01 66.9 °F 66.6 °F 30.19 in Calm   1.0 mph 99% 0.00 in
00:06 66.9 °F 66.4 °F 30.19 in Calm     98% 0.00 in
00:11 66.7 °F 66.2 °F 30.19 in Calm     98% 0.00 in
00:16 66.7 °F 66.2 °F 30.19 in Calm     98% 0.00 in
00:21 66.6 °F 66.0 °F 30.19 in Calm     98% 0.00 in
00:41 66.6 °F 66.2 °F 30.19 in Calm   1.0 mph 99% 0.00 in
00:46 66.6 °F 66.2 °F 30.19 in Calm   1.0 mph 99% 0.00 in
00:52 66.6 °F 66.2 °F 30.19 in Calm   1.0 mph 99% 0.00 in
00:57 66.6 °F 66.2 °F 30.19 in Calm     99% 0.00 in
01:02 66.7 °F 66.4 °F 30.19 in Calm     99% 0.00 in
01:07 66.9 °F 66.6 °F 30.18 in Calm     99% 0.00 in
01:12 66.7 °F 66.4 °F 30.18 in Calm     99% 0.00 in
01:17 66.7 °F 66.4 °F 30.18 in Calm   1.0 mph 99% 0.00 in
01:22 66.9 °F 66.6 °F 30.18 in Calm   1.0 mph 99% 0.00 in
01:27 66.9 °F 66.6 °F 30.18 in Calm     99% 0.00 in
01:32 66.9 °F 66.6 °F 30.19 in Calm     99% 0.00 in
01:37 66.9 °F 66.6 °F 30.18 in Calm     99% 0.00 in
01:42 66.9 °F 66.6 °F 30.18 in Calm     99% 0.00 in
01:47 66.9 °F 66.6 °F 30.18 in Calm     99% 0.00 in
01:52 66.9 °F 66.6 °F 30.17 in SE 0.9 mph 1.0 mph 99% 0.00 in
01:57 66.9 °F 66.6 °F 30.18 in Calm   1.0 mph 99% 0.00 in
02:02 66.9 °F 66.6 °F 30.17 in Calm   1.0 mph 99% 0.00 in
02:07 67.1 °F 66.7 °F 30.17 in Calm   1.0 mph 99% 0.00 in
02:12 67.1 °F 66.7 °F 30.17 in Calm   1.0 mph 99% 0.00 in
02:17 67.1 °F 66.7 °F 30.17 in Calm   1.0 mph 99% 0.00 in
02:22 66.9 °F 66.6 °F 30.17 in ESE 0.9 mph 1.0 mph 99% 0.00 in
02:48 66.7 °F 66.4 °F 30.16 in Calm   1.0 mph 99% 0.00 in
02:53 66.6 °F 66.2 °F 30.16 in Calm   1.0 mph 99% 0.00 in
02:58 66.6 °F 66.2 °F 30.16 in Calm   1.0 mph 99% 0.00 in
03:03 66.6 °F 66.2 °F 30.16 in Calm     99% 0.00 in
03:08 66.4 °F 66.0 °F 30.16 in Calm     99% 0.00 in
03:13 66.6 °F 66.2 °F 30.16 in Calm     99% 0.00 in
03:23 66.4 °F 66.0 °F 30.16 in Calm   1.0 mph 99% 0.00 in
03:28 66.4 °F 66.0 °F 30.16 in Calm     99% 0.00 in
03:33 66.4 °F 66.0 °F 30.16 in Calm   1.0 mph 99% 0.00 in
03:38 66.4 °F 66.0 °F 30.16 in Calm   1.0 mph 99% 0.00 in
03:43 66.2 °F 65.8 °F 30.16 in Calm     99% 0.00 in
03:48 66.0 °F 65.7 °F 30.16 in Calm   1.0 mph 99% 0.00 in
03:53 66.0 °F 65.7 °F 30.16 in Calm   1.0 mph 99% 0.00 in
03:58 66.0 °F 65.7 °F 30.16 in Calm     99% 0.00 in
04:03 65.8 °F 65.5 °F 30.15 in Calm     99% 0.00 in
04:08 65.8 °F 65.5 °F 30.16 in Calm     99% 0.00 in
04:18 65.8 °F 65.5 °F 30.16 in Calm     99% 0.00 in
04:23 65.8 °F 65.5 °F 30.15 in Calm   1.0 mph 99% 0.00 in
04:28 65.8 °F 65.5 °F 30.15 in Calm     99% 0.00 in
04:33 65.7 °F 65.3 °F 30.15 in Calm   2.0 mph 99% 0.00 in
04:38 65.5 °F 65.1 °F 30.15 in Calm   1.0 mph 99% 0.00 in
04:43 65.5 °F 65.1 °F 30.15 in Calm   1.0 mph 99% 0.00 in
04:54 65.5 °F 65.1 °F 30.15 in Calm     99% 0.00 in
05:04 65.1 °F 64.8 °F 30.15 in SW 2.0 mph 3.0 mph 99% 0.00 in
05:14 65.1 °F 64.8 °F 30.15 in Calm   1.0 mph 99% 0.00 in
05:19 65.3 °F 64.9 °F 30.15 in Calm     99% 0.00 in
05:29 65.3 °F 64.9 °F 30.16 in Calm     99% 0.00 in
05:34 65.3 °F 64.8 °F 30.16 in Calm     98% 0.00 in
05:39 65.1 °F 64.6 °F 30.16 in Calm     98% 0.00 in
05:49 65.1 °F 64.6 °F 30.17 in Calm     98% 0.00 in
05:54 65.1 °F 64.6 °F 30.17 in Calm   1.0 mph 98% 0.00 in
05:59 65.1 °F 64.6 °F 30.17 in Calm   1.0 mph 98% 0.00 in
06:04 65.1 °F 64.6 °F 30.17 in Calm     98% 0.00 in
06:09 65.1 °F 64.6 °F 30.18 in Calm     98% 0.00 in
06:14 64.9 °F 64.4 °F 30.18 in Calm     98% 0.00 in
06:19 64.9 °F 64.4 °F 30.19 in Calm     98% 0.00 in
06:24 64.9 °F 64.4 °F 30.19 in Calm     98% 0.00 in
06:29 65.1 °F 64.6 °F 30.19 in Calm   1.0 mph 98% 0.00 in
06:44 65.1 °F 64.6 °F 30.19 in NNE 0.9 mph 1.0 mph 98% 0.00 in
06:50 65.1 °F 64.6 °F 30.19 in Calm   1.0 mph 98% 0.00 in
06:55 65.1 °F 64.2 °F 30.19 in Calm   1.0 mph 97% 0.00 in
07:00 65.1 °F 64.2 °F 30.19 in Calm   2.0 mph 97% 0.00 in
07:05 65.1 °F 64.6 °F 30.19 in NE 0.9 mph 1.0 mph 98% 0.00 in
07:40 65.8 °F 64.4 °F 30.18 in Calm   1.0 mph 95% 0.00 in
07:45 66.0 °F 64.6 °F 30.18 in Calm   1.0 mph 95% 0.00 in
07:50 67.3 °F 65.8 °F 30.18 in Calm     95% 0.00 in
07:55 68.5 °F 66.2 °F 30.17 in Calm   1.0 mph 92% 0.00 in
08:00 69.6 °F 66.2 °F 30.17 in Calm     89% 0.00 in
08:05 71.1 °F 66.7 °F 30.18 in Calm   1.0 mph 86% 0.00 in
08:10 72.1 °F 67.5 °F 30.18 in Calm   1.0 mph 85% 0.00 in
08:15 73.2 °F 67.5 °F 30.18 in Calm     82% 0.00 in
08:20 74.7 °F 68.0 °F 30.18 in Calm   1.0 mph 80% 0.00 in
08:25 75.4 °F 68.0 °F 30.19 in Calm   1.0 mph 78% 0.00 in
08:46 74.7 °F 68.0 °F 30.19 in ESE 0.9 mph 2.0 mph 80% 0.00 in
08:51 75.0 °F 67.6 °F 30.19 in ESE 0.9 mph 1.0 mph 78% 0.00 in
09:01 73.4 °F 67.6 °F 30.19 in Calm   2.0 mph 82% 0.00 in
09:11 72.1 °F 67.1 °F 30.19 in Calm   1.0 mph 84% 0.00 in
09:16 73.0 °F 67.6 °F 30.19 in Calm     83% 0.00 in
09:31 72.9 °F 67.5 °F 30.19 in Calm   1.0 mph 83% 0.00 in
09:36 72.7 °F 67.8 °F 30.19 in Calm   1.0 mph 85% 0.00 in
09:41 73.0 °F 68.5 °F 30.19 in NE 0.9 mph 1.0 mph 86% 0.00 in
09:51 74.5 °F 68.5 °F 30.18 in SE 0.9 mph 2.0 mph 82% 0.00 in
09:56 74.8 °F 68.2 °F 30.18 in Calm   2.0 mph 80% 0.00 in
10:01 76.3 °F 69.3 °F 30.18 in Calm   1.0 mph 79% 0.00 in
10:06 77.9 °F 69.8 °F 30.17 in WSW 0.9 mph 2.0 mph 76% 0.00 in
10:11 77.4 °F 70.0 °F 30.17 in Calm   1.0 mph 78% 0.00 in
10:21 78.1 °F 69.1 °F 30.17 in Calm   2.0 mph 74% 0.00 in
10:26 78.1 °F 69.1 °F 30.17 in Calm   1.0 mph 74% 0.00 in
10:31 78.4 °F 68.7 °F 30.17 in Calm   2.0 mph 72% 0.00 in
11:12 79.5 °F 66.7 °F 30.16 in West 2.9 mph 3.0 mph 65% 0.00 in
11:17 79.9 °F 67.1 °F 30.16 in Calm   2.0 mph 65% 0.00 in
11:22 80.2 °F 67.8 °F 30.16 in West 0.9 mph 3.0 mph 66% 0.00 in
11:37 80.2 °F 69.1 °F 30.17 in Calm   3.0 mph 69% 0.00 in
11:42 80.8 °F 68.7 °F 30.17 in ENE 2.0 mph 3.0 mph 67% 0.00 in
11:47 81.0 °F 68.0 °F 30.18 in WSW 4.0 mph 8.0 mph 65% 0.00 in
11:57 81.9 °F 68.0 °F 30.17 in Calm   3.0 mph 63% 0.00 in
12:07 81.9 °F 63.5 °F 30.17 in WNW 2.9 mph 9.0 mph 54% 0.00 in
12:22 82.6 °F 65.8 °F 30.17 in ENE 2.9 mph 7.0 mph 57% 0.00 in
12:32 81.9 °F 66.2 °F 30.17 in ENE 6.0 mph 6.0 mph 59% 0.00 in
12:38 81.9 °F 64.0 °F 30.17 in WNW 2.0 mph 2.0 mph 55% 0.00 in
12:43 81.7 °F 63.0 °F 30.17 in WNW 6.0 mph 6.0 mph 53% 0.00 in
12:48 81.9 °F 64.6 °F 30.17 in Calm   4.0 mph 56% 0.00 in
12:53 82.8 °F 63.3 °F 30.17 in WSW 4.0 mph 4.0 mph 52% 0.00 in
13:18 82.8 °F 64.9 °F 30.17 in SW 0.9 mph 1.0 mph 55% 0.00 in
13:23 83.1 °F 64.2 °F 30.18 in NW 2.9 mph 5.0 mph 53% 0.00 in
13:28 82.6 °F 62.1 °F 30.17 in South 2.0 mph 4.0 mph 50% 0.00 in
13:33 82.6 °F 63.7 °F 30.17 in SE 2.0 mph 6.0 mph 53% 0.00 in
13:43 82.9 °F 62.4 °F 30.17 in NNE 2.0 mph 4.0 mph 50% 0.00 in
13:48 83.1 °F 62.1 °F 30.17 in WNW 0.9 mph 5.0 mph 49% 0.00 in
13:53 82.9 °F 61.2 °F 30.17 in ENE 2.0 mph 6.0 mph 48% 0.00 in
13:58 82.9 °F 63.0 °F 30.17 in SE 6.0 mph 6.0 mph 51% 0.00 in
14:03 82.8 °F 64.9 °F 30.17 in Calm   2.0 mph 55% 0.00 in
14:08 83.1 °F 63.7 °F 30.17 in East 2.0 mph 3.0 mph 52% 0.00 in
14:23 84.2 °F 61.2 °F 30.16 in East 2.9 mph 15.0 mph 46% 0.00 in
14:28 84.4 °F 61.9 °F 30.16 in ESE 6.9 mph 7.0 mph 47% 0.00 in
14:38 84.7 °F 61.7 °F 30.16 in SE 0.9 mph 6.0 mph 46% 0.00 in
14:43 83.8 °F 62.6 °F 30.16 in WSW 4.0 mph 9.0 mph 49% 0.00 in
14:58 82.8 °F 62.2 °F 30.16 in WSW 2.0 mph 2.0 mph 50% 0.00 in
15:03 82.8 °F 61.7 °F 30.16 in Calm   3.0 mph 49% 0.00 in
15:19 81.3 °F 62.1 °F 30.15 in Calm   2.0 mph 52% 0.00 in
15:24 79.7 °F 65.5 °F 30.15 in Calm     62% 0.00 in
15:59 82.9 °F 64.0 °F 30.15 in West 2.9 mph 3.0 mph 53% 0.00 in
16:04 83.5 °F 64.0 °F 30.15 in WNW 0.9 mph 5.0 mph 52% 0.00 in
16:09 83.8 °F 65.5 °F 30.15 in West 0.9 mph 3.0 mph 54% 0.00 in
16:14 84.6 °F 63.3 °F 30.14 in ENE 4.9 mph 5.0 mph 49% 0.00 in
16:19 84.9 °F 63.0 °F 30.14 in WNW 2.0 mph 4.0 mph 48% 0.00 in
WheeWeather.com
Compliments of Weather Underground - 1.75 mb